Terminal Aerodrome Forecast
Issued by NWS

Home | Current Version | Previous Version | Text Only | Print | Product List | Glossary On
Versions: 1 2 3 4 5 6 7 8 9 10 11 12 13 14 15 16 17 18 19 20 21 22 23 24 25 26 27 28
154
FTUS42 KCAE 240855 AAA
TAFDNL
TAF AMD
KDNL 240855Z 2409/2506 01010KT 4SM SHRA VCTS OVC008CB
      TEMPO 2410/2414 2SM SHRA OVC006
     FM241600 34007KT P6SM VCSH BKN012
     FM250000 32006KT P6SM OVC008=

USA.gov is the U.S. government's official web portal to all federal, state and local government web resources and services.